Time;durP1;ratioP1;P1;durP2;ratioP2;P2;SDS_P1;SDS_P2;PMS_P1;PMS_P2;Temp;Humidity;BMP_temperature;BMP_pressure;BME280_temperature;BME280_humidity;BME280_pressure;Samples;Min_cycle;Max_cycle;Signal;HPM_P1;HPM_P2
2020/12/13 00:00:29;;;;;;;10.43;6.60;;;6.70;93.50;;;;;;4966780;28;20186;-62
2020/12/13 00:02:55;;;;;;;8.00;6.27;;;6.60;93.70;;;;;;4948408;28;20186;-62
2020/12/13 00:05:21;;;;;;;6.87;5.33;;;6.60;93.40;;;;;;4966887;28;20980;-62
2020/12/13 00:07:49;;;;;;;8.07;5.87;;;6.60;93.60;;;;;;4949166;28;20182;-63
2020/12/13 00:10:14;;;;;;;12.23;6.73;;;6.60;93.90;;;;;;4948893;28;20190;-62
2020/12/13 00:12:40;;;;;;;8.03;6.10;;;6.60;94.10;;;;;;4965815;28;20281;-63
2020/12/13 00:15:06;;;;;;;9.03;6.27;;;6.60;94.10;;;;;;4946222;29;20197;-63
2020/12/13 00:17:32;;;;;;;10.37;5.37;;;6.60;94.00;;;;;;4947474;29;20274;-62
2020/12/13 00:19:58;;;;;;;11.50;6.23;;;6.70;94.00;;;;;;4947328;29;20210;-63
2020/12/13 00:22:24;;;;;;;8.83;5.63;;;6.70;94.00;;;;;;4929918;28;20253;-63
2020/12/13 00:24:50;;;;;;;8.50;5.33;;;6.70;93.90;;;;;;4965636;28;20186;-63
2020/12/13 00:27:16;;;;;;;10.17;5.97;;;6.70;93.90;;;;;;4964586;28;20182;-62
2020/12/13 00:29:42;;;;;;;10.07;6.27;;;6.70;93.90;;;;;;4966622;28;20178;-63
2020/12/13 00:32:08;;;;;;;7.50;5.77;;;6.70;93.90;;;;;;4965849;28;20182;-62
2020/12/13 00:34:33;;;;;;;8.70;6.43;;;6.70;93.90;;;;;;4966520;28;20301;-62
2020/12/13 00:37:00;;;;;;;9.00;6.67;;;6.80;93.90;;;;;;4966292;28;20178;-62
2020/12/13 00:39:26;;;;;;;12.00;7.53;;;6.80;93.90;;;;;;4966295;28;20284;-63
2020/12/13 00:41:53;;;;;;;12.00;6.67;;;6.80;93.90;;;;;;4964142;28;20226;-61
2020/12/13 00:44:20;;;;;;;10.53;6.73;;;6.80;93.90;;;;;;4965361;28;20179;-63
2020/12/13 00:46:46;;;;;;;10.50;6.97;;;6.80;93.90;;;;;;4947959;28;20190;-62
2020/12/13 00:49:12;;;;;;;12.00;7.27;;;6.80;93.90;;;;;;4965740;28;20178;-63
2020/12/13 00:51:38;;;;;;;10.80;7.03;;;6.80;94.00;;;;;;4946929;28;20190;-62
2020/12/13 00:54:04;;;;;;;8.47;6.57;;;6.80;93.90;;;;;;4944010;28;20179;-63
2020/12/13 00:56:30;;;;;;;13.80;7.20;;;6.80;93.90;;;;;;4927566;29;20191;-62
2020/12/13 00:58:56;;;;;;;11.43;6.77;;;6.80;93.80;;;;;;4946753;28;20678;-62
2020/12/13 01:01:22;;;;;;;9.90;6.83;;;6.80;93.80;;;;;;4945240;29;20210;-62
2020/12/13 01:03:47;;;;;;;10.57;5.97;;;6.80;93.70;;;;;;4947102;28;20315;-62
2020/12/13 01:06:26;;;;;;;8.20;6.83;;;6.80;93.60;;;;;;4945599;28;20189;-62
2020/12/13 01:08:53;;;;;;;13.53;6.33;;;6.80;93.60;;;;;;4965579;28;20191;-62
2020/12/13 01:11:27;;;;;;;7.23;6.50;;;6.80;93.70;;;;;;4965355;28;20179;-61
2020/12/13 01:13:54;;;;;;;11.40;6.63;;;6.80;93.70;;;;;;4965036;28;20182;-61
2020/12/13 01:16:20;;;;;;;7.67;6.20;;;6.70;93.70;;;;;;4966200;28;20182;-62
2020/12/13 01:18:46;;;;;;;11.13;6.70;;;6.70;93.50;;;;;;4965452;28;20190;-62
2020/12/13 01:21:19;;;;;;;11.30;6.37;;;6.70;93.40;;;;;;4965877;28;20708;-62
2020/12/13 01:23:44;;;;;;;10.90;6.63;;;6.70;93.50;;;;;;4965547;28;20198;-62
2020/12/13 01:26:15;;;;;;;10.70;6.70;;;6.60;93.60;;;;;;4965679;28;20185;-61
2020/12/13 01:28:41;;;;;;;15.17;7.23;;;6.60;93.70;;;;;;4965852;28;20162;-62
2020/12/13 01:31:08;;;;;;;7.60;5.93;;;6.60;93.90;;;;;;4963169;28;20573;-61
2020/12/13 01:33:34;;;;;;;8.10;6.80;;;6.60;93.90;;;;;;4965217;28;20208;-62
2020/12/13 01:36:00;;;;;;;8.97;6.63;;;6.60;93.90;;;;;;4947543;28;20718;-62
2020/12/13 01:38:25;;;;;;;11.27;6.50;;;6.60;94.00;;;;;;4965116;28;20195;-61
2020/12/13 01:40:59;;;;;;;9.20;6.33;;;6.50;94.10;;;;;;4964402;28;20243;-61
2020/12/13 01:43:25;;;;;;;10.67;6.33;;;6.50;94.10;;;;;;4944211;29;20278;-61
2020/12/13 01:45:51;;;;;;;9.17;6.60;;;6.50;94.20;;;;;;4947398;28;20187;-61
2020/12/13 01:48:18;;;;;;;10.23;6.40;;;6.50;94.20;;;;;;4965442;28;20659;-61
2020/12/13 01:50:52;;;;;;;9.30;6.20;;;6.50;94.20;;;;;;4944478;29;20186;-62
2020/12/13 01:53:24;;;;;;;15.67;6.93;;;6.50;94.30;;;;;;4929043;29;20586;-62
2020/12/13 01:55:51;;;;;;;9.07;6.10;;;6.50;94.30;;;;;;4953502;28;20225;-61
2020/12/13 01:58:24;;;;;;;9.90;5.77;;;6.40;94.40;;;;;;4965208;28;20193;-61
2020/12/13 02:00:52;;;;;;;11.33;6.50;;;6.40;94.50;;;;;;4943630;29;20218;-62
2020/12/13 02:03:23;;;;;;;11.67;6.50;;;6.40;94.50;;;;;;4961217;28;20190;-61
2020/12/13 02:06:09;;;;;;;8.23;6.40;;;6.40;94.50;;;;;;4967971;28;20209;-61
2020/12/13 02:08:40;;;;;;;6.63;5.47;;;6.40;94.50;;;;;;4968672;28;20178;-61
2020/12/13 02:11:10;;;;;;;10.03;6.70;;;6.30;94.70;;;;;;4969016;28;20270;-61
2020/12/13 02:13:37;;;;;;;8.50;5.70;;;6.40;94.80;;;;;;4952094;28;20182;-61
2020/12/13 02:16:03;;;;;;;8.40;5.47;;;6.30;94.80;;;;;;4968760;28;20193;-62
2020/12/13 02:18:29;;;;;;;8.60;5.23;;;6.30;94.90;;;;;;4969488;28;20182;-61
2020/12/13 02:20:56;;;;;;;6.87;5.23;;;6.40;94.90;;;;;;4968532;28;20202;-62
2020/12/13 02:23:22;;;;;;;8.67;6.17;;;6.30;94.90;;;;;;4968480;28;20714;-63
2020/12/13 02:25:49;;;;;;;8.43;5.83;;;6.30;94.90;;;;;;4968568;28;20190;-62
2020/12/13 02:28:15;;;;;;;10.30;5.27;;;6.30;94.80;;;;;;4968359;28;20639;-63
2020/12/13 02:30:40;;;;;;;9.13;5.13;;;6.30;94.90;;;;;;4968391;28;20194;-62
2020/12/13 02:33:07;;;;;;;8.07;5.67;;;6.30;94.90;;;;;;4967736;28;20186;-62
2020/12/13 02:35:33;;;;;;;6.80;5.00;;;6.30;95.00;;;;;;4968635;28;20201;-62
2020/12/13 02:37:59;;;;;;;8.50;5.83;;;6.30;94.90;;;;;;4967876;28;20577;-62
2020/12/13 02:40:43;;;;;;;6.37;5.17;;;6.30;94.80;;;;;;4950598;28;20206;-61
2020/12/13 02:43:09;;;;;;;7.50;5.23;;;6.20;94.80;;;;;;4967883;28;20170;-63
2020/12/13 02:45:34;;;;;;;7.20;5.47;;;6.20;94.80;;;;;;4949510;28;20686;-64
2020/12/13 02:48:00;;;;;;;12.53;6.13;;;6.10;94.90;;;;;;4968206;28;20182;-63
2020/12/13 02:50:25;;;;;;;6.07;4.97;;;6.10;94.90;;;;;;4967948;28;20197;-63
2020/12/13 02:52:51;;;;;;;8.07;5.40;;;6.00;94.70;;;;;;4967818;28;20297;-63
2020/12/13 02:55:17;;;;;;;7.33;4.53;;;6.00;94.50;;;;;;4966967;28;20591;-63
2020/12/13 02:57:43;;;;;;;5.33;4.83;;;5.90;94.30;;;;;;4966625;28;20262;-62
2020/12/13 03:00:08;;;;;;;5.77;5.07;;;5.80;94.30;;;;;;4968278;28;20280;-61
2020/12/13 03:02:34;;;;;;;6.23;4.57;;;5.80;94.30;;;;;;4968572;28;20727;-61
2020/12/13 03:05:00;;;;;;;10.03;4.83;;;5.70;94.40;;;;;;4968394;28;20229;-61
2020/12/13 03:07:26;;;;;;;8.43;5.10;;;5.60;94.40;;;;;;4968152;28;20185;-61
2020/12/13 03:09:51;;;;;;;6.00;5.13;;;5.50;94.50;;;;;;4968239;28;20264;-61
2020/12/13 03:12:17;;;;;;;8.03;5.07;;;5.50;94.60;;;;;;4967746;28;20179;-61
2020/12/13 03:14:43;;;;;;;8.20;5.07;;;5.40;94.70;;;;;;4967718;28;20179;-62
2020/12/13 03:17:08;;;;;;;6.73;4.37;;;5.40;94.90;;;;;;4966559;28;20663;-62
2020/12/13 03:19:34;;;;;;;6.43;4.70;;;5.30;95.00;;;;;;4967931;28;20178;-61
2020/12/13 03:22:00;;;;;;;5.87;4.90;;;5.30;95.10;;;;;;4931789;29;20332;-62
2020/12/13 03:24:25;;;;;;;9.23;5.40;;;5.20;95.40;;;;;;4931042;29;20182;-61
2020/12/13 03:26:51;;;;;;;6.30;4.30;;;5.20;95.60;;;;;;4950929;28;20325;-62
2020/12/13 03:29:17;;;;;;;8.13;4.80;;;5.20;95.80;;;;;;4948830;29;20178;-62
2020/12/13 03:31:42;;;;;;;8.37;4.53;;;5.20;95.90;;;;;;4948856;29;20274;-62
2020/12/13 03:34:08;;;;;;;6.97;4.37;;;5.10;96.10;;;;;;4965255;28;20574;-62
2020/12/13 03:36:34;;;;;;;5.20;4.70;;;5.10;96.10;;;;;;4967172;28;20313;-62
2020/12/13 03:38:59;;;;;;;6.33;5.10;;;5.10;96.30;;;;;;4967393;28;20269;-61
2020/12/13 03:41:25;;;;;;;7.23;5.03;;;5.10;96.40;;;;;;4949379;28;20219;-61
2020/12/13 03:43:51;;;;;;;6.70;4.40;;;5.20;96.80;;;;;;4949880;28;20186;-62
2020/12/13 03:46:17;;;;;;;7.37;5.47;;;5.20;96.90;;;;;;4967253;28;20202;-62
2020/12/13 03:48:42;;;;;;;15.90;8.80;;;5.20;96.90;;;;;;4967437;28;20579;-62
2020/12/13 03:51:08;;;;;;;13.97;7.37;;;5.20;97.30;;;;;;4954670;28;20190;-62
2020/12/13 03:53:34;;;;;;;14.53;9.07;;;5.20;97.50;;;;;;4948430;29;20183;-62
2020/12/13 03:55:59;;;;;;;17.17;8.87;;;5.30;97.60;;;;;;4966117;28;20209;-61
2020/12/13 03:58:25;;;;;;;14.53;7.97;;;5.30;97.50;;;;;;4967301;28;20181;-62
2020/12/13 04:00:51;;;;;;;13.87;8.30;;;5.30;97.70;;;;;;4949988;28;20733;-62
2020/12/13 04:03:16;;;;;;;15.03;8.57;;;5.30;97.60;;;;;;4949780;28;20256;-61
2020/12/13 04:05:42;;;;;;;15.83;8.17;;;5.30;97.50;;;;;;4949835;28;20178;-62
2020/12/13 04:08:08;;;;;;;15.03;8.70;;;5.30;97.70;;;;;;4966685;28;20221;-62
2020/12/13 04:10:34;;;;;;;12.23;8.77;;;5.30;97.60;;;;;;4949652;28;20240;-62
2020/12/13 04:12:59;;;;;;;13.67;8.27;;;5.20;97.80;;;;;;4966784;28;20193;-62
2020/12/13 04:15:25;;;;;;;17.27;9.10;;;5.20;97.80;;;;;;4949566;28;20209;-62
2020/12/13 04:17:51;;;;;;;19.97;9.10;;;5.20;97.90;;;;;;4966715;28;20233;-62
2020/12/13 04:20:17;;;;;;;13.87;8.73;;;5.20;98.10;;;;;;4966801;28;20229;-62
2020/12/13 04:22:43;;;;;;;17.57;9.23;;;5.20;98.00;;;;;;4966540;28;20683;-62
2020/12/13 04:25:09;;;;;;;18.07;9.33;;;5.20;97.70;;;;;;4949557;28;20606;-62
2020/12/13 04:27:35;;;;;;;13.20;8.93;;;5.10;98.00;;;;;;4945169;28;20194;-62
2020/12/13 04:30:00;;;;;;;13.80;8.50;;;5.10;98.10;;;;;;4963208;28;20186;-62
2020/12/13 04:32:26;;;;;;;16.47;9.30;;;5.10;98.10;;;;;;4946380;28;20205;-62
2020/12/13 04:34:52;;;;;;;15.63;9.53;;;5.10;98.20;;;;;;4966490;28;20233;-62
2020/12/13 04:37:18;;;;;;;18.00;9.60;;;5.10;98.20;;;;;;4949182;28;20186;-62
2020/12/13 04:39:44;;;;;;;22.77;10.83;;;5.00;98.10;;;;;;4966170;28;20174;-62
2020/12/13 04:42:10;;;;;;;20.70;11.27;;;5.00;98.10;;;;;;4966414;28;20210;-62
2020/12/13 04:44:36;;;;;;;19.03;11.43;;;4.90;98.30;;;;;;4948712;28;20209;-64
2020/12/13 04:47:07;;;;;;;23.77;11.73;;;4.90;98.40;;;;;;4966355;28;20202;-62
2020/12/13 04:49:34;;;;;;;22.53;11.37;;;4.90;98.50;;;;;;4966199;28;20181;-62
2020/12/13 04:52:19;;;;;;;16.50;11.20;;;4.80;98.50;;;;;;4950271;28;20268;-62
2020/12/13 04:54:50;;;;;;;20.43;11.80;;;4.80;98.50;;;;;;4966386;28;20155;-62
2020/12/13 04:57:17;;;;;;;22.17;11.03;;;4.80;98.50;;;;;;4965435;28;20178;-62
2020/12/13 04:59:45;;;;;;;19.07;10.57;;;4.80;98.50;;;;;;4965078;28;20733;-62
2020/12/13 05:02:12;;;;;;;22.60;12.00;;;4.80;98.50;;;;;;4964032;28;20198;-62
2020/12/13 05:04:39;;;;;;;25.93;12.07;;;4.80;98.50;;;;;;4962254;28;20273;-62
2020/12/13 05:07:04;;;;;;;26.30;12.30;;;4.90;98.50;;;;;;4945180;28;20192;-61
2020/12/13 05:09:30;;;;;;;25.10;12.57;;;4.80;98.50;;;;;;4965797;28;20190;-63
2020/12/13 05:11:56;;;;;;;20.77;10.63;;;4.80;98.50;;;;;;4947832;28;20249;-62
2020/12/13 05:14:21;;;;;;;21.43;10.43;;;4.80;98.50;;;;;;4965361;28;20232;-62
2020/12/13 05:16:47;;;;;;;19.37;9.90;;;4.80;98.50;;;;;;4947251;28;20289;-62
2020/12/13 05:19:13;;;;;;;23.53;11.20;;;4.90;98.50;;;;;;4965532;28;20187;-62
2020/12/13 05:21:39;;;;;;;18.37;11.13;;;4.90;98.50;;;;;;4947189;28;20670;-62
2020/12/13 05:24:06;;;;;;;20.37;10.57;;;5.00;98.50;;;;;;4962494;28;20198;-62
2020/12/13 05:26:32;;;;;;;21.80;10.37;;;4.90;98.50;;;;;;4965422;28;20952;-62
2020/12/13 05:29:00;;;;;;;19.00;11.13;;;4.90;98.50;;;;;;4964946;28;20193;-62
2020/12/13 05:31:30;;;;;;;18.93;10.50;;;4.90;98.50;;;;;;4965519;28;20178;-62
2020/12/13 05:36:25;;;;;;;23.27;11.90;;;4.90;98.50;;;;;;4965438;28;20190;-61
2020/12/13 05:38:57;;;;;;;16.47;9.00;;;4.90;98.50;;;;;;4963233;28;20256;-60
2020/12/13 05:41:32;;;;;;;18.57;10.07;;;4.90;98.50;;;;;;4939923;28;20338;-61
2020/12/13 05:46:57;;;;;;;27.87;11.53;;;4.80;98.50;;;;;;4965586;28;20179;-62
2020/12/13 05:52:17;;;;;;;18.60;9.77;;;4.90;98.50;;;;;;4918343;29;20238;-63
2020/12/13 05:54:45;;;;;;;19.77;10.80;;;4.80;98.50;;;;;;4921715;29;20242;-63
2020/12/13 05:57:13;;;;;;;21.53;10.37;;;4.80;98.50;;;;;;4923751;29;21019;-65
2020/12/13 05:59:39;;;;;;;20.97;10.17;;;4.80;98.50;;;;;;4924454;29;20303;-62
2020/12/13 06:02:09;;;;;;;25.67;11.00;;;4.80;98.50;;;;;;4911985;29;20773;-62
2020/12/13 06:04:42;;;;;;;24.60;11.13;;;4.80;98.50;;;;;;4905655;29;20169;-61
2020/12/13 06:07:11;;;;;;;20.70;10.93;;;4.80;98.50;;;;;;4905887;29;20169;-61
2020/12/13 06:09:40;;;;;;;18.43;10.10;;;4.80;98.50;;;;;;4923395;29;20224;-62
2020/12/13 06:12:11;;;;;;;23.87;10.60;;;4.80;98.50;;;;;;4924100;29;20661;-62
2020/12/13 06:14:37;;;;;;;21.30;11.10;;;4.90;98.50;;;;;;4923663;29;20195;-62
2020/12/13 06:17:04;;;;;;;17.97;10.27;;;4.90;98.50;;;;;;4907729;29;20578;-62
2020/12/13 06:19:31;;;;;;;18.30;10.20;;;4.90;98.50;;;;;;4923524;29;20192;-62
2020/12/13 06:22:00;;;;;;;26.83;11.33;;;4.90;98.50;;;;;;4923126;29;20310;-63
2020/12/13 06:24:26;;;;;;;25.63;11.43;;;4.90;98.50;;;;;;4920834;29;20223;-62
2020/12/13 06:26:54;;;;;;;15.80;9.63;;;5.00;98.50;;;;;;4920188;28;20834;-62
2020/12/13 06:29:21;;;;;;;21.43;10.90;;;5.00;98.50;;;;;;4944735;28;20199;-62
2020/12/13 06:31:48;;;;;;;22.23;10.47;;;5.00;98.50;;;;;;4956760;28;20187;-63
2020/12/13 06:34:13;;;;;;;20.13;10.50;;;5.10;98.50;;;;;;4964411;28;20198;-62
2020/12/13 06:36:40;;;;;;;21.43;11.13;;;5.10;98.50;;;;;;4963003;28;20209;-62
2020/12/13 06:39:12;;;;;;;23.47;9.67;;;5.20;98.50;;;;;;4964123;28;20706;-62
2020/12/13 06:41:40;;;;;;;23.93;10.23;;;5.20;98.50;;;;;;4947201;28;20207;-62
2020/12/13 06:44:07;;;;;;;20.07;10.30;;;5.20;98.50;;;;;;4964406;28;20178;-62
2020/12/13 06:46:38;;;;;;;19.57;9.43;;;5.30;98.50;;;;;;4945580;28;20186;-62
2020/12/13 06:49:05;;;;;;;20.43;10.20;;;5.30;98.50;;;;;;4947266;28;20221;-62
2020/12/13 06:51:39;;;;;;;18.97;10.43;;;5.40;98.50;;;;;;4946631;28;20194;-61
2020/12/13 06:54:07;;;;;;;23.87;10.60;;;5.40;98.50;;;;;;4946325;28;20269;-64
2020/12/13 06:56:34;;;;;;;20.33;10.50;;;5.40;98.50;;;;;;4966894;28;20218;-61
2020/12/13 06:59:01;;;;;;;23.93;11.27;;;5.50;98.50;;;;;;4967743;28;20248;-63
2020/12/13 07:01:32;;;;;;;17.77;9.77;;;5.60;98.50;;;;;;4967895;28;20225;-61
2020/12/13 07:04:18;;;;;;;24.10;10.67;;;5.70;98.50;;;;;;4949743;28;20191;-61
2020/12/13 07:06:45;;;;;;;15.20;10.03;;;5.70;98.50;;;;;;4962633;28;20198;-62
2020/12/13 07:09:14;;;;;;;22.77;10.70;;;5.80;98.40;;;;;;4967319;28;20878;-63
2020/12/13 07:11:42;;;;;;;21.60;11.20;;;5.80;98.10;;;;;;4967167;28;20281;-61
2020/12/13 07:14:11;;;;;;;19.90;11.67;;;5.80;98.00;;;;;;4949666;28;20266;-61
2020/12/13 07:16:44;;;;;;;18.73;11.13;;;5.90;98.10;;;;;;4967272;28;20190;-61
2020/12/13 07:19:13;;;;;;;19.27;9.53;;;5.90;98.00;;;;;;4965704;28;20643;-62
2020/12/13 07:21:41;;;;;;;19.90;12.20;;;6.00;98.10;;;;;;4964913;28;20222;-61
2020/12/13 07:24:07;;;;;;;24.13;11.10;;;6.10;98.10;;;;;;4967720;28;20305;-61
2020/12/13 07:26:36;;;;;;;20.57;11.90;;;6.10;98.00;;;;;;4966849;28;20186;-61
2020/12/13 07:29:05;;;;;;;25.10;12.17;;;6.20;97.30;;;;;;4946903;29;20346;-61
2020/12/13 07:31:37;;;;;;;22.93;11.73;;;6.20;97.20;;;;;;4930637;29;20183;-61
2020/12/13 07:34:06;;;;;;;24.23;11.47;;;6.20;97.40;;;;;;4961943;28;20306;-61
2020/12/13 07:36:33;;;;;;;16.63;11.13;;;6.30;97.50;;;;;;4966854;28;20189;-61
2020/12/13 07:39:04;;;;;;;21.30;11.77;;;6.30;97.50;;;;;;4948623;28;20198;-61
2020/12/13 07:41:30;;;;;;;27.67;12.63;;;6.40;97.20;;;;;;4949401;28;20288;-62
2020/12/13 07:44:02;;;;;;;23.90;12.93;;;6.40;97.00;;;;;;4967029;28;20182;-62
2020/12/13 07:46:30;;;;;;;22.57;11.60;;;6.50;96.70;;;;;;4965754;28;20178;-62
2020/12/13 07:49:07;;;;;;;20.57;11.03;;;6.50;96.90;;;;;;4945711;29;20195;-62
2020/12/13 07:51:40;;;;;;;22.63;12.17;;;6.50;96.90;;;;;;4961814;28;20216;-61
2020/12/13 07:54:26;;;;;;;27.20;13.10;;;6.60;96.50;;;;;;4965770;28;20175;-61
2020/12/13 07:56:54;;;;;;;21.77;11.00;;;6.50;96.50;;;;;;4965650;28;20667;-61
2020/12/13 07:59:21;;;;;;;18.73;11.10;;;6.60;96.50;;;;;;4966934;28;20962;-62
2020/12/13 08:01:52;;;;;;;22.03;11.30;;;6.60;96.30;;;;;;4964502;28;20653;-62
2020/12/13 08:04:40;;;;;;;16.40;10.87;;;6.60;96.30;;;;;;4961109;28;20269;-62
2020/12/13 08:07:10;;;;;;;21.10;10.70;;;6.60;96.00;;;;;;4946673;28;20202;-62
2020/12/13 08:09:38;;;;;;;19.10;10.23;;;6.60;95.80;;;;;;4966049;28;20178;-62
2020/12/13 08:12:05;;;;;;;19.63;11.27;;;6.70;95.60;;;;;;4948767;28;21018;-62
2020/12/13 08:14:31;;;;;;;20.83;11.13;;;6.70;95.50;;;;;;4964794;28;20190;-63
2020/12/13 08:16:57;;;;;;;20.07;11.67;;;6.60;95.40;;;;;;4947963;28;20193;-61
2020/12/13 08:19:42;;;;;;;26.40;11.60;;;6.70;95.60;;;;;;4965386;28;20198;-61
2020/12/13 08:22:20;;;;;;;23.47;13.03;;;6.70;95.60;;;;;;4960301;28;20601;-62
2020/12/13 08:24:53;;;;;;;21.03;12.80;;;6.70;95.50;;;;;;4947419;28;20281;-62
2020/12/13 08:27:19;;;;;;;26.37;13.03;;;6.80;95.70;;;;;;4966175;28;20171;-62
2020/12/13 08:29:45;;;;;;;23.20;12.63;;;6.80;95.60;;;;;;4947280;28;20183;-61
2020/12/13 08:32:13;;;;;;;19.17;12.23;;;6.90;95.50;;;;;;4960888;28;20842;-61
2020/12/13 08:34:38;;;;;;;23.73;12.77;;;6.90;95.40;;;;;;4957533;28;20187;-61
2020/12/13 08:37:04;;;;;;;21.87;11.87;;;7.00;95.40;;;;;;4935546;28;20198;-60
2020/12/13 08:39:31;;;;;;;24.73;13.10;;;7.10;95.50;;;;;;4964326;28;20305;-60
2020/12/13 08:41:59;;;;;;;19.73;11.17;;;7.10;95.50;;;;;;4936184;28;20243;-60
2020/12/13 08:44:36;;;;;;;33.23;12.53;;;7.20;95.30;;;;;;4939727;28;20295;-60
2020/12/13 08:47:10;;;;;;;24.70;12.83;;;7.20;94.90;;;;;;4959600;28;20178;-62
2020/12/13 08:49:38;;;;;;;29.07;13.07;;;7.20;94.40;;;;;;4967573;28;20262;-61
2020/12/13 08:52:22;;;;;;;24.33;15.30;;;7.30;94.20;;;;;;4951437;28;20623;-62
2020/12/13 08:54:48;;;;;;;24.30;14.77;;;7.20;93.60;;;;;;4963037;28;20194;-62
2020/12/13 08:57:34;;;;;;;27.30;14.77;;;7.20;93.30;;;;;;4964817;28;20197;-61
2020/12/13 09:00:10;;;;;;;22.10;12.37;;;7.20;93.20;;;;;;4953729;28;20905;-62
2020/12/13 09:02:36;;;;;;;25.87;12.70;;;7.20;93.20;;;;;;4963600;28;20189;-62
2020/12/13 09:05:05;;;;;;;27.03;14.93;;;7.30;93.40;;;;;;4964796;28;20659;-62
2020/12/13 09:07:34;;;;;;;26.70;13.77;;;7.30;93.50;;;;;;4959224;28;20186;-61
2020/12/13 09:10:09;;;;;;;22.77;13.60;;;7.30;93.00;;;;;;4939298;28;20205;-62
2020/12/13 09:12:35;;;;;;;25.70;14.53;;;7.40;92.60;;;;;;4964402;28;20609;-61
2020/12/13 09:15:16;;;;;;;30.30;14.70;;;7.40;92.70;;;;;;4962448;28;20189;-61
2020/12/13 09:17:52;;;;;;;27.27;14.53;;;7.50;92.80;;;;;;4948756;28;20240;-61
2020/12/13 09:20:24;;;;;;;25.70;13.80;;;7.50;92.60;;;;;;4955985;28;20209;-63
2020/12/13 09:23:12;;;;;;;26.63;14.60;;;7.60;92.90;;;;;;4952540;28;20198;-63
2020/12/13 09:25:44;;;;;;;20.57;12.30;;;7.70;92.10;;;;;;4939334;29;20210;-62
2020/12/13 09:28:11;;;;;;;26.93;15.17;;;7.70;92.30;;;;;;4956011;28;20186;-62
2020/12/13 09:30:37;;;;;;;25.20;13.13;;;7.70;91.80;;;;;;4963810;28;20774;-62
2020/12/13 09:33:04;;;;;;;29.07;13.47;;;7.60;91.00;;;;;;4960356;28;20190;-62
2020/12/13 09:35:32;;;;;;;26.30;13.57;;;7.60;91.80;;;;;;4959720;28;20194;-62
2020/12/13 09:37:59;;;;;;;26.13;13.27;;;7.70;92.30;;;;;;4959248;28;20712;-62
2020/12/13 09:40:25;;;;;;;32.00;13.40;;;7.80;92.50;;;;;;4933076;28;20206;-62
2020/12/13 09:42:52;;;;;;;23.07;12.77;;;7.90;92.60;;;;;;4962488;28;20244;-62
2020/12/13 09:45:17;;;;;;;24.83;13.07;;;8.00;92.30;;;;;;4959481;28;20187;-62
2020/12/13 09:47:43;;;;;;;26.97;12.70;;;8.10;91.90;;;;;;4944085;28;20743;-62
2020/12/13 09:52:54;;;;;;;20.73;11.53;;;8.20;91.30;;;;;;4963954;28;20184;-62
2020/12/13 09:55:20;;;;;;;23.07;12.80;;;8.20;91.20;;;;;;4963175;28;20922;-62
2020/12/13 09:57:46;;;;;;;23.17;13.00;;;8.30;91.20;;;;;;4958471;28;20360;-61
2020/12/13 10:00:12;;;;;;;25.57;15.37;;;8.30;90.30;;;;;;4956935;28;20202;-62
2020/12/13 10:02:38;;;;;;;23.53;13.97;;;8.40;90.30;;;;;;4959125;28;20209;-61
2020/12/13 10:05:06;;;;;;;21.43;13.30;;;8.40;90.30;;;;;;4963179;28;20189;-63
2020/12/13 10:10:13;;;;;;;19.50;11.00;;;8.40;89.90;;;;;;4959307;28;20193;-63
2020/12/13 10:12:39;;;;;;;22.63;11.50;;;8.50;90.40;;;;;;4963704;28;20187;-62
2020/12/13 10:15:05;;;;;;;21.77;11.90;;;8.60;90.50;;;;;;4964088;28;20249;-61
2020/12/13 10:17:30;;;;;;;18.03;11.20;;;8.70;89.10;;;;;;4960369;28;20674;-62
2020/12/13 10:19:56;;;;;;;18.90;11.67;;;8.70;89.40;;;;;;4945870;28;20191;-62
2020/12/13 10:22:22;;;;;;;17.33;10.57;;;8.80;89.20;;;;;;4960594;28;20224;-62
2020/12/13 10:24:48;;;;;;;22.27;12.02;;;8.90;89.10;;;;;;4962429;28;20293;-63
2020/12/13 10:27:13;;;;;;;23.27;11.87;;;8.90;88.10;;;;;;4959236;28;20682;-62
2020/12/13 10:29:39;;;;;;;21.87;11.17;;;8.90;87.40;;;;;;4967430;28;20277;-61
2020/12/13 10:32:05;;;;;;;20.57;12.37;;;8.90;87.90;;;;;;4965865;28;20222;-61
2020/12/13 10:34:30;;;;;;;25.27;13.70;;;9.00;87.70;;;;;;4965931;28;20287;-62
2020/12/13 10:36:56;;;;;;;27.10;14.13;;;9.00;87.40;;;;;;4966744;28;20190;-61
2020/12/13 10:39:22;;;;;;;22.27;13.27;;;9.20;87.60;;;;;;4967591;28;20257;-63
2020/12/13 10:41:51;;;;;;;22.85;13.40;;;9.30;87.00;;;;;;4966488;28;20695;-64
2020/12/13 10:44:19;;;;;;;21.80;13.52;;;9.60;86.60;;;;;;4967421;28;20284;-63
2020/12/13 10:46:45;;;;;;;25.05;13.73;;;9.80;86.30;;;;;;4946250;28;20186;-64
2020/12/13 10:49:11;;;;;;;24.17;15.40;;;10.10;85.50;;;;;;4944217;28;20680;-64
2020/12/13 10:51:37;;;;;;;22.77;13.52;;;10.40;84.50;;;;;;4958230;28;20183;-61
2020/12/13 10:54:03;;;;;;;20.75;13.75;;;10.70;84.10;;;;;;4958307;28;20202;-62
2020/12/13 10:56:28;;;;;;;22.63;15.55;;;10.80;82.80;;;;;;4938778;28;20269;-62
2020/12/13 10:58:54;;;;;;;26.63;15.30;;;10.80;82.80;;;;;;4963849;28;20186;-61
2020/12/13 11:01:20;;;;;;;23.00;15.07;;;10.90;83.20;;;;;;4961817;28;20780;-61
2020/12/13 11:03:45;;;;;;;23.52;14.50;;;10.90;82.60;;;;;;4967606;28;20186;-62
2020/12/13 11:06:11;;;;;;;32.25;18.73;;;10.90;82.30;;;;;;4963861;28;20672;-62
2020/12/13 11:08:38;;;;;;;27.85;16.15;;;10.90;81.90;;;;;;4965028;28;20745;-62
2020/12/13 11:11:05;;;;;;;24.67;14.77;;;10.80;82.30;;;;;;4962076;28;20193;-63
2020/12/13 11:13:34;;;;;;;22.13;13.98;;;10.80;82.40;;;;;;4942356;28;20190;-62
2020/12/13 11:16:00;;;;;;;21.38;13.57;;;10.70;82.40;;;;;;4958329;28;20274;-62
2020/12/13 11:18:30;;;;;;;24.63;13.65;;;10.70;82.70;;;;;;4961083;28;20531;-62
2020/12/13 11:20:57;;;;;;;23.55;14.30;;;10.70;83.00;;;;;;4960724;28;20206;-63
2020/12/13 11:23:23;;;;;;;27.00;15.13;;;10.70;82.80;;;;;;4939719;28;20202;-65
2020/12/13 11:25:49;;;;;;;22.85;15.55;;;10.70;83.80;;;;;;4953071;28;21052;-61
2020/12/13 11:28:14;;;;;;;20.85;13.52;;;10.70;82.60;;;;;;4964977;28;20671;-63
2020/12/13 11:30:40;;;;;;;25.35;14.23;;;10.70;82.80;;;;;;4962979;28;20187;-61
2020/12/13 11:33:06;;;;;;;21.35;13.40;;;10.70;82.70;;;;;;4955562;28;20198;-61
2020/12/13 11:35:31;;;;;;;22.98;14.57;;;10.70;83.40;;;;;;4946901;28;20292;-61
2020/12/13 11:37:57;;;;;;;24.52;14.05;;;10.60;83.10;;;;;;4946660;28;20182;-62
2020/12/13 11:40:23;;;;;;;22.80;12.80;;;10.60;83.60;;;;;;4966202;28;20198;-61
2020/12/13 11:42:49;;;;;;;20.08;11.93;;;10.50;83.60;;;;;;4966943;28;20638;-62
2020/12/13 11:45:15;;;;;;;19.95;12.32;;;10.40;82.90;;;;;;4954211;28;20802;-61
2020/12/13 11:47:40;;;;;;;17.15;11.25;;;10.20;83.10;;;;;;4962295;28;20174;-62
2020/12/13 11:50:10;;;;;;;16.38;10.57;;;10.10;83.50;;;;;;4952732;28;20181;-62
2020/12/13 11:52:38;;;;;;;23.10;12.32;;;10.00;84.00;;;;;;4953522;28;20240;-62
2020/12/13 11:55:04;;;;;;;18.55;12.25;;;9.80;84.30;;;;;;4956922;28;20262;-62
2020/12/13 11:57:29;;;;;;;22.10;11.63;;;9.70;84.70;;;;;;4961045;28;20269;-61
2020/12/13 11:59:55;;;;;;;18.67;12.10;;;9.50;85.10;;;;;;4933762;28;20185;-62
2020/12/13 12:02:21;;;;;;;17.73;11.18;;;9.50;85.60;;;;;;4966080;28;20198;-63
2020/12/13 12:04:47;;;;;;;18.33;11.48;;;9.50;85.90;;;;;;4965897;28;20183;-62
2020/12/13 12:07:12;;;;;;;13.90;9.82;;;9.50;86.10;;;;;;4966294;28;20194;-62
2020/12/13 12:09:38;;;;;;;16.77;10.82;;;9.50;86.00;;;;;;4956131;28;20191;-62
2020/12/13 12:12:04;;;;;;;14.43;9.25;;;9.50;86.20;;;;;;4963119;28;20209;-62
2020/12/13 12:14:30;;;;;;;13.60;9.18;;;9.50;85.80;;;;;;4958003;28;20635;-62
2020/12/13 12:16:56;;;;;;;15.40;10.38;;;9.50;85.80;;;;;;4957577;28;20326;-62
2020/12/13 12:19:22;;;;;;;15.43;9.55;;;9.60;86.10;;;;;;4958910;28;20210;-62
2020/12/13 12:21:50;;;;;;;13.35;9.55;;;9.60;85.80;;;;;;4962750;28;20202;-62
2020/12/13 12:24:18;;;;;;;13.45;8.90;;;9.60;85.60;;;;;;4949743;28;20222;-62
2020/12/13 12:26:44;;;;;;;16.27;9.43;;;9.60;85.40;;;;;;4961270;28;20209;-62
2020/12/13 12:29:10;;;;;;;14.55;9.00;;;9.60;85.40;;;;;;4957459;28;20175;-63
2020/12/13 12:31:37;;;;;;;14.13;9.00;;;9.60;85.60;;;;;;4948661;28;20183;-61
2020/12/13 12:34:03;;;;;;;9.13;7.03;;;9.50;85.80;;;;;;4956313;28;20197;-63
2020/12/13 12:39:14;;;;;;;8.23;6.93;;;9.40;85.80;;;;;;4962791;28;20243;-63
2020/12/13 12:41:40;;;;;;;11.27;7.55;;;9.30;85.90;;;;;;4935460;28;20206;-61
2020/12/13 12:44:05;;;;;;;10.18;7.22;;;9.20;86.40;;;;;;4947889;28;20182;-62
2020/12/13 12:46:31;;;;;;;7.97;7.18;;;9.10;86.70;;;;;;4947948;28;20189;-61
2020/12/13 12:48:57;;;;;;;10.65;6.90;;;9.20;87.00;;;;;;4949166;28;20214;-62
2020/12/13 12:51:23;;;;;;;6.95;6.10;;;9.30;86.90;;;;;;4955222;28;20179;-62
2020/12/13 12:53:49;;;;;;;10.20;7.20;;;9.30;87.10;;;;;;4957870;28;20229;-62
2020/12/13 12:56:15;;;;;;;10.98;7.38;;;9.40;86.90;;;;;;4957895;28;20178;-62
2020/12/13 13:01:20;;;;;;;10.53;7.20;;;9.50;86.70;;;;;;4964345;28;20186;-63
2020/12/13 13:03:48;;;;;;;10.27;7.35;;;9.50;86.40;;;;;;4963094;28;20167;-64